Time;durP1;ratioP1;P1;durP2;ratioP2;P2;SDS_P1;SDS_P2;PMS_P1;PMS_P2;Temp;Humidity;BMP_temperature;BMP_pressure;BME280_temperature;BME280_humidity;BME280_pressure;Samples;Min_cycle;Max_cycle;Signal;HPM_P1;HPM_P2
2022/05/31 00:01:59;;;;;;;;;;;;;;;11.13;100.00;98208.98;1633088;86;20251;-85
2022/05/31 00:04:25;;;;;;;;;;;;;;;11.01;100.00;98203.38;1639621;86;22683;-85
2022/05/31 00:06:51;;;;;;;;;;;;;;;11.01;100.00;98217.78;1639871;86;21128;-83
2022/05/31 00:09:16;;;;;;;;;;;;;;;11.10;100.00;98219.70;1633987;85;20586;-83
2022/05/31 00:11:44;;;;;;;;;;;;;;;11.16;100.00;98210.91;1631972;86;20270;-83
2022/05/31 00:14:11;;;;;;;;;;;;;;;11.18;100.00;98207.68;1631454;85;24815;-83
2022/05/31 00:16:38;;;;;;;;;;;;;;;11.04;100.00;98201.83;1639685;85;22153;-83
2022/05/31 00:19:07;;;;;;;;;;;;;;;10.91;100.00;98203.21;1637769;86;26048;-83
2022/05/31 00:21:34;;;;;;;;;;;;;;;10.95;100.00;98209.08;1615862;88;24506;-88
2022/05/31 00:24:00;;;;;;;;;;;;;;;11.04;100.00;98207.91;1634520;86;20259;-83
2022/05/31 00:26:26;;;;;;;;;;;;;;;11.16;100.00;98204.83;1640281;85;20254;-83
2022/05/31 00:28:52;;;;;;;;;;;;;;;11.24;100.00;98203.29;1644646;86;20335;-85
2022/05/31 00:31:18;;;;;;;;;;;;;;;11.39;100.00;98204.40;1638758;86;26105;-83
2022/05/31 00:33:44;;;;;;;;;;;;;;;11.52;100.00;98207.72;1637358;86;20264;-87
2022/05/31 00:36:10;;;;;;;;;;;;;;;11.62;100.00;98208.67;1638390;86;20385;-83
2022/05/31 00:38:37;;;;;;;;;;;;;;;11.66;100.00;98201.79;1638633;86;20270;-83
2022/05/31 00:41:23;;;;;;;;;;;;;;;11.47;100.00;98202.00;1607411;87;21962;-87
2022/05/31 00:43:37;;;;;;;;;;;;;;;11.33;100.00;98205.70;1637550;85;26110;-84
2022/05/31 00:46:03;;;;;;;;;;;;;;;11.42;100.00;98209.39;1639728;86;20375;-84
2022/05/31 00:48:31;;;;;;;;;;;;;;;11.49;100.00;98208.81;1642383;87;20346;-83
2022/05/31 00:51:01;;;;;;;;;;;;;;;11.54;100.00;98207.98;1637232;86;24752;-84
2022/05/31 00:53:29;;;;;;;;;;;;;;;11.51;100.00;98202.95;1644894;86;21617;-83
2022/05/31 00:55:57;;;;;;;;;;;;;;;11.33;100.00;98201.30;1641460;86;26018;-83
2022/05/31 00:58:25;;;;;;;;;;;;;;;11.19;100.00;98202.80;1606934;88;24445;-83
2022/05/31 01:00:51;;;;;;;;;;;;;;;11.15;100.00;98201.38;1637692;85;20453;-86
2022/05/31 01:03:19;;;;;;;;;;;;;;;11.21;100.00;98202.22;1638167;86;24810;-86
2022/05/31 01:05:45;;;;;;;;;;;;;;;11.27;100.00;98192.59;1607158;88;22007;-84
2022/05/31 01:08:12;;;;;;;;;;;;;;;11.35;100.00;98193.80;1642628;86;26171;-87
2022/05/31 01:10:39;;;;;;;;;;;;;;;11.43;100.00;98186.17;1607035;87;25073;-87
2022/05/31 01:13:05;;;;;;;;;;;;;;;11.35;100.00;98188.06;1640951;85;20192;-87
2022/05/31 01:15:31;;;;;;;;;;;;;;;11.19;100.00;98182.33;1607745;88;20332;-84
2022/05/31 01:17:57;;;;;;;;;;;;;;;11.07;100.00;98180.19;1643828;86;20328;-84
2022/05/31 01:20:23;;;;;;;;;;;;;;;11.16;100.00;98185.19;1641009;86;21828;-84
2022/05/31 01:22:53;;;;;;;;;;;;;;;11.27;100.00;98178.19;1607315;87;20860;-83
2022/05/31 01:25:24;;;;;;;;;;;;;;;11.22;100.00;98176.39;1646062;85;20264;-84
2022/05/31 01:27:53;;;;;;;;;;;;;;;11.02;100.00;98173.13;1607055;88;25600;-84
2022/05/31 01:30:19;;;;;;;;;;;;;;;10.89;100.00;98171.93;1633338;86;22071;-83
2022/05/31 01:32:47;;;;;;;;;;;;;;;10.80;100.00;98175.72;1626474;87;26107;-84
2022/05/31 01:35:18;;;;;;;;;;;;;;;10.75;100.00;98185.67;1624547;86;25251;-84
2022/05/31 01:37:46;;;;;;;;;;;;;;;10.79;100.00;98180.59;1628631;86;20407;-84
2022/05/31 01:40:29;;;;;;;;;;;;;;;10.86;100.00;98180.47;1628642;86;25545;-84
2022/05/31 01:42:55;;;;;;;;;;;;;;;10.90;100.00;98185.86;1621434;86;22222;-88
2022/05/31 01:45:26;;;;;;;;;;;;;;;10.91;100.00;98186.19;1627586;86;21125;-84
2022/05/31 01:47:58;;;;;;;;;;;;;;;10.95;100.00;98192.89;1627426;86;24538;-85
2022/05/31 01:50:24;;;;;;;;;;;;;;;10.98;100.00;98190.50;1635191;87;20216;-85
2022/05/31 01:52:51;;;;;;;;;;;;;;;10.97;100.00;98194.06;1629294;86;20870;-87
2022/05/31 01:55:18;;;;;;;;;;;;;;;10.92;100.00;98193.11;1631801;86;22085;-88
2022/05/31 01:57:47;;;;;;;;;;;;;;;10.86;100.00;98201.41;1650730;85;26049;-86
2022/05/31 02:00:14;;;;;;;;;;;;;;;10.81;100.00;98193.91;1647540;86;25141;-86
2022/05/31 02:02:41;;;;;;;;;;;;;;;10.87;100.00;98197.38;1646012;85;20477;-86
2022/05/31 02:05:07;;;;;;;;;;;;;;;10.89;100.00;98190.73;1649768;85;24829;-86
2022/05/31 02:07:34;;;;;;;;;;;;;;;10.95;100.00;98194.67;1649948;85;22008;-83
2022/05/31 02:10:01;;;;;;;;;;;;;;;10.91;100.00;98195.36;1625470;86;26270;-88
2022/05/31 02:12:28;;;;;;;;;;;;;;;10.82;100.00;98199.98;1648748;86;24690;-88
2022/05/31 02:14:56;;;;;;;;;;;;;;;10.74;100.00;98195.34;1649407;84;20278;-88
2022/05/31 02:17:22;;;;;;;;;;;;;;;10.78;100.00;98196.77;1648871;85;24772;-85
2022/05/31 02:19:49;;;;;;;;;;;;;;;10.83;100.00;98194.64;1651284;83;22058;-85
2022/05/31 02:22:17;;;;;;;;;;;;;;;10.77;100.00;98192.95;1652567;86;26008;-85
2022/05/31 02:24:44;;;;;;;;;;;;;;;10.71;100.00;98193.40;1647573;86;24471;-85
2022/05/31 02:27:11;;;;;;;;;;;;;;;10.77;100.00;98190.33;1649496;85;20256;-85
2022/05/31 02:29:38;;;;;;;;;;;;;;;10.85;100.00;98184.06;1657096;85;24846;-84
2022/05/31 02:32:06;;;;;;;;;;;;;;;10.93;100.00;98186.09;1664269;84;22882;-85
2022/05/31 02:34:35;;;;;;;;;;;;;;;10.86;100.00;98186.55;1664459;84;26062;-83
2022/05/31 02:37:01;;;;;;;;;;;;;;;10.90;100.00;98183.23;1663060;84;24597;-84
2022/05/31 02:39:33;;;;;;;;;;;;;;;10.79;100.00;98188.45;1666299;85;20277;-84
2022/05/31 02:42:01;;;;;;;;;;;;;;;10.68;100.00;98185.31;1660824;84;24734;-84
2022/05/31 02:44:28;;;;;;;;;;;;;;;10.46;100.00;98179.53;1665007;85;21631;-83
2022/05/31 02:46:57;;;;;;;;;;;;;;;10.25;100.00;98187.63;1663527;84;26127;-82
2022/05/31 02:49:22;;;;;;;;;;;;;;;10.14;100.00;98183.61;1663631;84;24405;-83
2022/05/31 02:51:48;;;;;;;;;;;;;;;10.05;100.00;98187.70;1665157;84;20228;-85
2022/05/31 02:54:18;;;;;;;;;;;;;;;10.09;100.00;98189.65;1665906;84;25309;-85
2022/05/31 02:56:46;;;;;;;;;;;;;;;10.19;100.00;98193.30;1662529;84;22171;-84
2022/05/31 02:59:14;;;;;;;;;;;;;;;10.24;100.00;98196.89;1664378;84;26007;-84
2022/05/31 03:01:41;;;;;;;;;;;;;;;10.25;100.00;98199.88;1664929;85;24436;-88
2022/05/31 03:04:07;;;;;;;;;;;;;;;10.26;100.00;98190.58;1664504;85;20648;-83
2022/05/31 03:06:36;;;;;;;;;;;;;;;10.32;100.00;98192.76;1664745;84;24782;-83
2022/05/31 03:09:02;;;;;;;;;;;;;;;10.31;100.00;98191.59;1664225;84;22048;-83
2022/05/31 03:11:39;;;;;;;;;;;;;;;10.25;100.00;98196.78;1664083;84;26115;-83
2022/05/31 03:14:13;;;;;;;;;;;;;;;10.28;100.00;98192.63;1665240;85;24668;-88
2022/05/31 03:16:40;;;;;;;;;;;;;;;10.26;100.00;98198.90;1662074;83;20170;-86
2022/05/31 03:19:08;;;;;;;;;;;;;;;10.24;100.00;98199.03;1664837;85;24936;-86
2022/05/31 03:21:39;;;;;;;;;;;;;;;10.35;100.00;98202.18;1662715;84;22154;-86
2022/05/31 03:24:12;;;;;;;;;;;;;;;10.49;100.00;98202.83;1661989;85;26859;-83
2022/05/31 03:26:40;;;;;;;;;;;;;;;10.62;100.00;98195.40;1605296;87;24489;-85
2022/05/31 03:29:07;;;;;;;;;;;;;;;10.57;100.00;98192.28;1663213;85;20232;-85
2022/05/31 03:31:35;;;;;;;;;;;;;;;10.40;100.00;98194.36;1663260;84;25424;-86
2022/05/31 03:34:01;;;;;;;;;;;;;;;10.34;100.00;98202.65;1661062;85;21962;-83
2022/05/31 03:36:27;;;;;;;;;;;;;;;10.48;100.00;98204.24;1663141;84;26189;-83
2022/05/31 03:38:53;;;;;;;;;;;;;;;10.85;100.00;98206.31;1649992;85;21455;-83
2022/05/31 03:41:19;;;;;;;;;;;;;;;11.10;100.00;98194.34;1644663;86;20336;-87
2022/05/31 03:43:45;;;;;;;;;;;;;;;11.32;100.00;98197.00;1640555;85;20298;-86
2022/05/31 03:46:12;;;;;;;;;;;;;;;11.46;100.00;98196.40;1635793;86;20424;-85
2022/05/31 03:48:37;;;;;;;;;;;;;;;11.53;100.00;98189.27;1635136;86;25997;-83
2022/05/31 03:51:05;;;;;;;;;;;;;;;11.59;100.00;98195.82;1634676;86;24568;-83
2022/05/31 03:53:31;;;;;;;;;;;;;;;11.63;100.00;98193.31;1633420;86;20225;-83
2022/05/31 03:55:58;;;;;;;;;;;;;;;11.66;100.00;98195.71;1626650;86;20279;-88
2022/05/31 03:58:24;;;;;;;;;;;;;;;11.86;100.00;98198.94;1641774;86;22209;-88
2022/05/31 04:00:50;;;;;;;;;;;;;;;11.89;100.00;98198.68;1645973;85;21123;-84
2022/05/31 04:03:17;;;;;;;;;;;;;;;11.92;100.00;98197.15;1644851;86;24282;-85
2022/05/31 04:05:43;;;;;;;;;;;;;;;11.92;100.00;98198.94;1608210;89;20390;-84
2022/05/31 04:08:11;;;;;;;;;;;;;;;11.92;100.00;98197.15;1647794;85;20409;-84
2022/05/31 04:10:40;;;;;;;;;;;;;;;12.08;100.00;98195.45;1668092;85;36530;-84
2022/05/31 04:13:06;;;;;;;;;;;;;;;12.51;100.00;98202.01;1666574;84;26818;-84
2022/05/31 04:15:38;;;;;;;;;;;;;;;12.93;100.00;98198.95;1661411;84;24432;-83
2022/05/31 04:18:04;;;;;;;;;;;;;;;13.27;100.00;98197.83;1662274;84;20269;-84
2022/05/31 04:20:31;;;;;;;;;;;;;;;13.50;100.00;98199.83;1663874;85;24999;-84
2022/05/31 04:25:47;;;;;;;;;;;;;;;13.79;100.00;98194.70;1663139;85;26127;-84
2022/05/31 04:28:14;;;;;;;;;;;;;;;13.85;100.00;98195.48;1665257;84;24449;-84
2022/05/31 04:30:42;;;;;;;;;;;;;;;13.82;100.00;98190.47;1641663;86;20740;-83
2022/05/31 04:33:07;;;;;;;;;;;;;;;13.80;100.00;98195.86;1632383;86;25498;-88
2022/05/31 04:35:35;;;;;;;;;;;;;;;13.74;100.00;98193.78;1634396;85;20319;-86
2022/05/31 04:38:01;;;;;;;;;;;;;;;13.67;100.00;98189.18;1633560;88;26208;-84
2022/05/31 04:40:28;;;;;;;;;;;;;;;13.63;100.00;98193.05;1633845;86;20231;-84
2022/05/31 04:42:54;;;;;;;;;;;;;;;13.53;100.00;98194.80;1633054;86;20368;-86
2022/05/31 04:45:20;;;;;;;;;;;;;;;13.38;100.00;98193.81;1634193;86;20274;-86
2022/05/31 04:47:47;;;;;;;;;;;;;;;13.42;100.00;98199.63;1636226;86;21964;-88
2022/05/31 04:50:14;;;;;;;;;;;;;;;13.52;100.00;98203.65;1633282;86;26201;-83
2022/05/31 04:52:40;;;;;;;;;;;;;;;13.59;100.00;98209.55;1635921;85;24408;-85
2022/05/31 04:55:07;;;;;;;;;;;;;;;13.67;100.00;98203.16;1634093;86;20217;-88
2022/05/31 04:57:35;;;;;;;;;;;;;;;13.72;100.00;98204.91;1633211;86;24811;-84
2022/05/31 05:00:02;;;;;;;;;;;;;;;13.75;100.00;98209.05;1632525;86;22005;-84
2022/05/31 05:02:28;;;;;;;;;;;;;;;13.70;100.00;98210.77;1633522;86;26813;-85
2022/05/31 05:04:54;;;;;;;;;;;;;;;13.61;100.00;98201.53;1633490;86;20905;-84
2022/05/31 05:07:20;;;;;;;;;;;;;;;13.53;100.00;98204.81;1635504;86;20279;-84
2022/05/31 05:09:46;;;;;;;;;;;;;;;13.50;100.00;98205.56;1632268;86;20267;-86
2022/05/31 05:12:11;;;;;;;;;;;;;;;13.35;100.00;98201.14;1633667;86;20287;-84
2022/05/31 05:14:37;;;;;;;;;;;;;;;13.25;100.00;98200.25;1632390;86;20940;-86
2022/05/31 05:17:03;;;;;;;;;;;;;;;13.13;100.00;98197.34;1633465;87;20219;-84
2022/05/31 05:19:29;;;;;;;;;;;;;;;13.11;100.00;98197.91;1635770;86;20260;-86
2022/05/31 05:21:56;;;;;;;;;;;;;;;13.25;100.00;98196.31;1633183;86;20296;-84
2022/05/31 05:24:21;;;;;;;;;;;;;;;13.36;100.00;98197.55;1631407;87;22077;-86
2022/05/31 05:26:47;;;;;;;;;;;;;;;13.48;100.00;98196.48;1632164;86;26064;-88
2022/05/31 05:31:58;;;;;;;;;;;;;;;13.47;100.00;98197.95;1651648;85;20674;-84
2022/05/31 05:34:24;;;;;;;;;;;;;;;13.46;100.00;98200.22;1654460;86;25009;-83
2022/05/31 05:36:56;;;;;;;;;;;;;;;13.43;100.00;98195.21;1654413;86;20226;-83
2022/05/31 05:39:22;;;;;;;;;;;;;;;13.49;100.00;98196.00;1655227;85;26073;-83
2022/05/31 05:41:49;;;;;;;;;;;;;;;13.51;100.00;98201.50;1652491;86;20853;-83
2022/05/31 05:44:16;;;;;;;;;;;;;;;13.53;100.00;98198.75;1654593;86;20490;-83
2022/05/31 05:46:43;;;;;;;;;;;;;;;13.54;100.00;98202.53;1653626;86;24960;-88
2022/05/31 05:49:20;;;;;;;;;;;;;;;13.54;100.00;98200.39;1649815;86;205491;-88
2022/05/31 05:51:49;;;;;;;;;;;;;;;13.54;100.00;98203.02;1653262;86;25968;-84
2022/05/31 05:54:15;;;;;;;;;;;;;;;13.56;100.00;98203.25;1653717;86;24386;-83
2022/05/31 05:56:41;;;;;;;;;;;;;;;13.68;100.00;98198.26;1651488;85;20564;-88
2022/05/31 05:59:09;;;;;;;;;;;;;;;13.73;100.00;98196.54;1654240;86;24974;-83
2022/05/31 06:01:37;;;;;;;;;;;;;;;13.83;100.00;98195.61;1654360;86;22105;-83
2022/05/31 06:04:07;;;;;;;;;;;;;;;13.84;100.00;98200.39;1653025;85;25935;-84
2022/05/31 06:06:35;;;;;;;;;;;;;;;13.89;100.00;98201.30;1650954;86;24450;-88
2022/05/31 06:09:04;;;;;;;;;;;;;;;14.02;100.00;98199.28;1654928;86;20259;-87
2022/05/31 06:11:38;;;;;;;;;;;;;;;14.10;100.00;98200.73;1653100;86;25155;-87
2022/05/31 06:14:12;;;;;;;;;;;;;;;14.11;100.00;98205.04;1652226;86;22006;-88
2022/05/31 06:16:40;;;;;;;;;;;;;;;14.14;100.00;98205.59;1654044;86;25990;-88
2022/05/31 06:19:10;;;;;;;;;;;;;;;14.17;100.00;98203.19;1654221;86;24461;-88
2022/05/31 06:21:36;;;;;;;;;;;;;;;14.15;100.00;98206.42;1653586;86;20247;-88
2022/05/31 06:24:02;;;;;;;;;;;;;;;14.13;100.00;98211.81;1653102;86;20214;-88
2022/05/31 06:26:34;;;;;;;;;;;;;;;14.18;100.00;98204.34;1656118;85;22137;-89
2022/05/31 06:29:00;;;;;;;;;;;;;;;14.27;100.00;98213.25;1647236;86;25949;-88
2022/05/31 06:31:28;;;;;;;;;;;;;;;14.33;100.00;98210.56;1663538;84;24413;-85
2022/05/31 06:33:54;;;;;;;;;;;;;;;14.33;100.00;98207.45;1662836;84;20265;-87
2022/05/31 06:36:20;;;;;;;;;;;;;;;14.35;100.00;98211.23;1644658;85;25061;-87
2022/05/31 06:38:46;;;;;;;;;;;;;;;14.38;100.00;98214.48;1665742;84;21845;-88
2022/05/31 06:41:13;;;;;;;;;;;;;;;14.46;100.00;98213.30;1667185;84;21020;-88
2022/05/31 06:43:39;;;;;;;;;;;;;;;14.54;100.00;98217.89;1663990;84;24459;-87
2022/05/31 06:46:06;;;;;;;;;;;;;;;14.64;100.00;98217.41;1664528;84;20329;-87
2022/05/31 06:48:33;;;;;;;;;;;;;;;14.74;100.00;98216.09;1665929;84;25038;-87
2022/05/31 06:51:02;;;;;;;;;;;;;;;14.86;100.00;98217.14;1666965;84;22082;-87
2022/05/31 06:58:43;;;;;;;;;;;;;;;15.18;100.00;98215.52;1662798;84;20228;-88
2022/05/31 07:01:12;;;;;;;;;;;;;;;15.27;100.00;98211.22;1662451;84;25053;-83
2022/05/31 07:03:38;;;;;;;;;;;;;;;15.29;100.00;98210.08;1662803;84;22548;-83
2022/05/31 07:06:04;;;;;;;;;;;;;;;15.33;100.00;98203.55;1664905;84;21166;-82
2022/05/31 07:08:30;;;;;;;;;;;;;;;15.40;100.00;98198.05;1665163;84;20249;-86
2022/05/31 07:10:56;;;;;;;;;;;;;;;15.49;100.00;98206.93;1665066;84;20552;-85
2022/05/31 07:13:22;;;;;;;;;;;;;;;15.61;100.00;98199.68;1665687;85;20437;-86
2022/05/31 07:15:51;;;;;;;;;;;;;;;15.72;100.00;98198.18;1666065;85;20307;-85
2022/05/31 07:18:15;;;;;;;;;;;;;;;15.77;100.00;98203.36;1669557;84;26590;-83
2022/05/31 07:20:44;;;;;;;;;;;;;;;15.83;100.00;98200.15;1666452;84;20264;-83
2022/05/31 07:23:09;;;;;;;;;;;;;;;15.90;100.00;98197.28;1666351;84;20256;-88
2022/05/31 07:25:35;;;;;;;;;;;;;;;15.97;100.00;98196.22;1664487;84;20532;-88
2022/05/31 07:28:01;;;;;;;;;;;;;;;16.11;100.00;98196.19;1664150;84;22776;-88
2022/05/31 07:30:27;;;;;;;;;;;;;;;16.20;100.00;98197.45;1663326;84;21043;-87
2022/05/31 07:32:53;;;;;;;;;;;;;;;16.31;100.00;98196.41;1667414;84;20261;-83
2022/05/31 07:35:24;;;;;;;;;;;;;;;16.39;100.00;98194.36;1664871;84;20485;-83
2022/05/31 07:37:50;;;;;;;;;;;;;;;16.48;100.00;98196.92;1664816;84;25034;-83
2022/05/31 07:40:16;;;;;;;;;;;;;;;16.56;100.00;98204.11;1664204;84;20237;-84
2022/05/31 07:42:42;;;;;;;;;;;;;;;16.65;100.00;98196.14;1663963;84;21111;-83
2022/05/31 07:45:08;;;;;;;;;;;;;;;16.75;100.00;98197.38;1666242;84;20301;-83
2022/05/31 07:47:34;;;;;;;;;;;;;;;16.83;100.00;98195.31;1668583;84;20246;-83
2022/05/31 07:50:00;;;;;;;;;;;;;;;16.95;100.00;98195.42;1676091;84;20276;-83
2022/05/31 07:52:26;;;;;;;;;;;;;;;17.09;100.00;98191.73;1665888;84;20816;-83
2022/05/31 07:54:52;;;;;;;;;;;;;;;17.17;100.00;98187.48;1664616;84;25963;-83
2022/05/31 08:00:02;;;;;;;;;;;;;;;17.36;100.00;98192.08;1665055;84;20226;-83
2022/05/31 08:02:28;;;;;;;;;;;;;;;17.42;100.00;98191.95;1664321;84;24963;-82
2022/05/31 08:04:54;;;;;;;;;;;;;;;17.52;100.00;98191.34;1665895;84;20236;-88
2022/05/31 08:07:20;;;;;;;;;;;;;;;17.57;100.00;98186.41;1664801;84;20886;-88
2022/05/31 08:09:46;;;;;;;;;;;;;;;17.64;100.00;98183.52;1664579;84;20324;-88
2022/05/31 08:12:12;;;;;;;;;;;;;;;17.75;100.00;98186.37;1664193;84;20328;-83
2022/05/31 08:14:38;;;;;;;;;;;;;;;17.85;100.00;98184.44;1662807;84;24956;-83
2022/05/31 08:17:04;;;;;;;;;;;;;;;17.91;100.00;98179.34;1664424;84;22622;-83
2022/05/31 08:19:30;;;;;;;;;;;;;;;18.05;100.00;98177.08;1666299;84;26867;-83
2022/05/31 08:21:57;;;;;;;;;;;;;;;18.14;100.00;98185.38;1665896;84;20875;-83
2022/05/31 08:24:23;;;;;;;;;;;;;;;18.20;100.00;98181.60;1664991;84;20336;-85
2022/05/31 08:26:49;;;;;;;;;;;;;;;18.20;100.00;98184.74;1663845;84;25729;-83
2022/05/31 08:29:16;;;;;;;;;;;;;;;18.23;100.00;98177.30;1667873;84;22091;-83
2022/05/31 08:31:42;;;;;;;;;;;;;;;18.34;99.01;98180.97;1656580;84;25790;-85
2022/05/31 08:34:08;;;;;;;;;;;;;;;18.46;98.07;98175.36;1642206;84;20340;-83
2022/05/31 08:36:34;;;;;;;;;;;;;;;18.55;96.83;98176.56;1644571;85;20251;-83
2022/05/31 08:39:00;;;;;;;;;;;;;;;18.62;95.49;98180.22;1641479;85;20776;-85
2022/05/31 08:41:32;;;;;;;;;;;;;;;18.65;94.19;98177.76;1624007;86;20205;-85
2022/05/31 08:44:17;;;;;;;;;;;;;;;18.67;92.96;98179.23;1642617;85;26280;-85
2022/05/31 08:46:44;;;;;;;;;;;;;;;18.75;91.69;98172.63;1638782;84;24453;-85
2022/05/31 08:49:19;;;;;;;;;;;;;;;18.89;90.87;98174.27;1610730;87;20322;-85
2022/05/31 08:51:55;;;;;;;;;;;;;;;19.01;90.29;98174.28;1644562;85;25015;-85
2022/05/31 08:57:21;;;;;;;;;;;;;;;19.22;88.73;98166.63;1642111;84;26175;-85
2022/05/31 08:59:49;;;;;;;;;;;;;;;19.25;86.95;98164.16;1637806;84;24432;-85
2022/05/31 09:02:19;;;;;;;;;;;;;;;19.24;85.75;98168.62;1642995;85;20286;-85
2022/05/31 09:04:47;;;;;;;;;;;;;;;19.27;84.89;98161.64;1640049;85;24974;-85
2022/05/31 09:07:18;;;;;;;;;;;;;;;19.34;84.28;98157.33;1612533;86;21426;-85
2022/05/31 09:10:01;;;;;;;;;;;;;;;19.38;83.14;98163.11;1614129;87;26091;-87
2022/05/31 09:12:44;;;;;;;;;;;;;;;19.39;82.00;98159.47;1616034;87;24413;-88
2022/05/31 09:15:18;;;;;;;;;;;;;;;19.38;80.93;98159.97;1640646;85;20261;-83
2022/05/31 09:18:00;;;;;;;;;;;;;;;19.38;79.92;98155.98;1645756;85;25142;-82
2022/05/31 09:20:30;;;;;;;;;;;;;;;19.48;79.57;98156.66;1640008;85;22082;-88
2022/05/31 09:22:56;;;;;;;;;;;;;;;19.57;79.03;98156.98;1644638;85;26048;-85
2022/05/31 09:25:22;;;;;;;;;;;;;;;19.64;78.31;98152.62;1639318;84;20471;-83
2022/05/31 09:27:50;;;;;;;;;;;;;;;19.67;77.15;98152.80;1641212;85;20266;-83
2022/05/31 09:30:26;;;;;;;;;;;;;;;19.69;76.44;98148.16;1637997;85;24977;-82
2022/05/31 09:33:13;;;;;;;;;;;;;;;19.63;75.24;98139.05;1632934;86;21953;-88
2022/05/31 09:35:47;;;;;;;;;;;;;;;19.63;74.81;98139.05;1661940;84;26059;-83
2022/05/31 09:38:18;;;;;;;;;;;;;;;19.60;73.98;98137.21;1660624;85;24499;-83
2022/05/31 09:40:52;;;;;;;;;;;;;;;19.63;73.39;98140.87;1659241;85;20355;-83
2022/05/31 09:43:38;;;;;;;;;;;;;;;19.64;72.53;98139.34;1661527;84;24700;-83
2022/05/31 09:46:09;;;;;;;;;;;;;;;19.67;71.51;98138.69;1661393;84;22033;-82
2022/05/31 09:48:40;;;;;;;;;;;;;;;19.72;70.67;98133.69;1661653;85;26121;-82
2022/05/31 09:51:11;;;;;;;;;;;;;;;19.78;70.14;98138.31;1660807;84;24670;-82
2022/05/31 09:59:11;;;;;;;;;;;;;;;19.74;67.34;98129.05;1661058;84;22819;-84
2022/05/31 10:01:41;;;;;;;;;;;;;;;19.75;66.84;98119.55;1660812;85;26103;-88
2022/05/31 10:04:08;;;;;;;;;;;;;;;19.76;66.18;98119.06;1661849;84;24440;-88
2022/05/31 10:06:36;;;;;;;;;;;;;;;19.74;65.70;98115.77;1662340;85;20256;-88
2022/05/31 10:09:15;;;;;;;;;;;;;;;19.76;65.40;98122.55;1658405;85;25062;-88
2022/05/31 10:11:45;;;;;;;;;;;;;;;19.75;64.64;98120.05;1661291;84;22077;-84
2022/05/31 10:14:22;;;;;;;;;;;;;;;19.77;64.15;98118.06;1661663;85;26007;-83
2022/05/31 10:16:49;;;;;;;;;;;;;;;19.79;63.92;98116.91;1661823;85;24520;-83
2022/05/31 10:19:26;;;;;;;;;;;;;;;19.81;63.39;98105.59;1662006;84;20270;-83
2022/05/31 10:21:52;;;;;;;;;;;;;;;19.87;63.31;98105.40;1661686;85;25063;-82
2022/05/31 10:24:23;;;;;;;;;;;;;;;19.93;62.81;98110.02;1660143;84;21960;-82
2022/05/31 10:27:07;;;;;;;;;;;;;;;19.94;62.53;98113.84;1660870;84;26015;-88
2022/05/31 10:29:36;;;;;;;;;;;;;;;19.98;62.34;98108.50;1661583;84;24549;-82
2022/05/31 10:32:04;;;;;;;;;;;;;;;19.98;61.71;98107.67;1660752;85;20325;-82
2022/05/31 10:34:40;;;;;;;;;;;;;;;20.01;61.53;98104.18;1656381;85;25028;-82
2022/05/31 10:37:07;;;;;;;;;;;;;;;20.06;61.24;98103.66;1661351;85;22125;-83
2022/05/31 10:39:36;;;;;;;;;;;;;;;20.07;60.83;98096.02;1659750;85;26602;-83
2022/05/31 10:42:03;;;;;;;;;;;;;;;20.07;60.35;98101.33;1660549;86;24400;-83
2022/05/31 10:44:32;;;;;;;;;;;;;;;20.13;60.19;98098.47;1660144;85;30770;-83
2022/05/31 10:47:05;;;;;;;;;;;;;;;20.17;59.95;98093.95;1661877;86;25045;-83
2022/05/31 10:49:32;;;;;;;;;;;;;;;20.23;59.73;98092.42;1659736;85;21949;-83
2022/05/31 10:52:08;;;;;;;;;;;;;;;20.25;59.20;98091.73;1661484;85;26002;-83
2022/05/31 10:54:39;;;;;;;;;;;;;;;20.24;58.78;98093.55;1659673;85;24438;-83
2022/05/31 10:57:16;;;;;;;;;;;;;;;20.27;58.56;98086.58;1661816;86;20568;-82
2022/05/31 10:59:46;;;;;;;;;;;;;;;20.33;58.44;98088.56;1661253;85;25762;-88
2022/05/31 11:02:23;;;;;;;;;;;;;;;20.35;57.99;98085.20;1661701;85;22005;-88
2022/05/31 11:05:01;;;;;;;;;;;;;;;20.42;57.85;98082.17;1655467;86;26236;-88
2022/05/31 11:07:33;;;;;;;;;;;;;;;20.39;57.69;98075.90;1649211;86;24479;-88
2022/05/31 11:13:14;;;;;;;;;;;;;;;20.34;56.84;98081.42;1654688;86;25814;-83
2022/05/31 11:15:42;;;;;;;;;;;;;;;20.40;56.64;98071.41;1655686;86;22072;-83
2022/05/31 11:18:09;;;;;;;;;;;;;;;20.33;56.42;98069.12;1653569;86;26073;-83
2022/05/31 11:20:54;;;;;;;;;;;;;;;20.35;56.45;98074.58;1655408;86;24428;-83
2022/05/31 11:23:21;;;;;;;;;;;;;;;20.50;56.65;98061.86;1655462;86;20215;-82
2022/05/31 11:25:58;;;;;;;;;;;;;;;20.71;56.85;98063.33;1657920;86;25039;-83
2022/05/31 11:28:32;;;;;;;;;;;;;;;20.73;56.59;98063.99;1649111;86;73766;-83
2022/05/31 11:31:02;;;;;;;;;;;;;;;20.76;56.49;98056.97;1643576;86;26243;-83
2022/05/31 11:33:36;;;;;;;;;;;;;;;21.00;57.06;98059.91;1644850;86;25182;-82
2022/05/31 11:36:06;;;;;;;;;;;;;;;21.39;58.15;98057.81;1644910;86;20207;-83
2022/05/31 11:38:40;;;;;;;;;;;;;;;21.62;58.38;98053.20;1646764;84;25012;-83
2022/05/31 11:41:14;;;;;;;;;;;;;;;21.81;58.23;98045.66;1649716;85;22178;-83
2022/05/31 11:43:45;;;;;;;;;;;;;;;22.07;58.39;98032.64;1654512;86;26824;-83
2022/05/31 11:46:10;;;;;;;;;;;;;;;;;;1647217;86;25247;-83
2022/05/31 11:48:41;;;;;;;;;;;;;;;22.58;58.73;98038.67;1650316;85;20282;-83
2022/05/31 11:51:11;;;;;;;;;;;;;;;22.45;57.21;98027.87;1647167;86;24958;-82
2022/05/31 11:53:56;;;;;;;;;;;;;;;22.33;55.86;98033.40;1614761;88;21954;-88
2022/05/31 11:56:26;;;;;;;;;;;;;;;22.51;55.74;98027.94;1640329;86;44161;-88
2022/05/31 11:58:54;;;;;;;;;;;;;;;22.68;55.47;98021.81;1611668;87;23917;-88
2022/05/31 12:01:34;;;;;;;;;;;;;;;22.77;55.43;98020.67;1589465;89;20618;-88
2022/05/31 12:04:11;;;;;;;;;;;;;;;22.71;54.59;98018.78;1611618;87;25194;-88
2022/05/31 12:06:39;;;;;;;;;;;;;;;22.67;54.10;98020.16;1633389;87;22174;-88
2022/05/31 12:09:19;;;;;;;;;;;;;;;22.82;53.75;98018.25;1655449;86;26057;-85
2022/05/31 12:11:47;;;;;;;;;;;;;;;22.73;53.13;98011.42;1641151;86;24477;-85
2022/05/31 12:14:14;;;;;;;;;;;;;;;22.77;53.03;98002.51;1649481;85;20227;-85
2022/05/31 12:16:41;;;;;;;;;;;;;;;22.70;52.55;98002.42;1643223;86;25708;-85
2022/05/31 12:19:19;;;;;;;;;;;;;;;22.71;52.30;98005.44;1645522;85;22070;-85
2022/05/31 12:21:46;;;;;;;;;;;;;;;22.72;51.88;98001.77;1648466;86;26235;-85
2022/05/31 12:24:17;;;;;;;;;;;;;;;22.71;51.10;97991.24;1620877;87;24696;-88
2022/05/31 12:26:53;;;;;;;;;;;;;;;22.58;50.17;97989.33;1597561;89;20505;-88
2022/05/31 12:29:24;;;;;;;;;;;;;;;22.59;49.82;97988.78;1650426;85;25560;-82
2022/05/31 12:31:50;;;;;;;;;;;;;;;22.60;49.46;97987.77;1649703;84;22113;-88
2022/05/31 12:34:21;;;;;;;;;;;;;;;22.66;49.38;97981.67;1665266;85;25666;-88
2022/05/31 12:37:04;;;;;;;;;;;;;;;22.72;49.63;97984.92;1667070;85;25220;-88
2022/05/31 12:39:33;;;;;;;;;;;;;;;22.57;49.33;97974.33;1665353;86;20207;-88
2022/05/31 12:42:01;;;;;;;;;;;;;;;22.32;48.76;97978.42;1667137;85;25035;-88
2022/05/31 12:44:29;;;;;;;;;;;;;;;22.22;48.59;97969.93;1661817;84;21946;-82
2022/05/31 12:46:57;;;;;;;;;;;;;;;22.27;48.75;97978.17;1668333;84;25654;-82
2022/05/31 12:49:31;;;;;;;;;;;;;;;22.33;48.85;97980.08;1664763;85;24651;-84
2022/05/31 12:52:04;;;;;;;;;;;;;;;22.53;49.52;97981.87;1662908;85;20222;-85
2022/05/31 12:54:50;;;;;;;;;;;;;;;22.62;49.50;97975.08;1643423;85;25046;-82
2022/05/31 12:57:24;;;;;;;;;;;;;;;22.63;49.39;97972.23;1665899;84;22004;-88
2022/05/31 12:59:52;;;;;;;;;;;;;;;22.72;49.49;97972.41;1661757;86;26177;-88
2022/05/31 13:02:22;;;;;;;;;;;;;;;22.72;49.40;97974.25;1664806;85;24416;-82
2022/05/31 13:04:57;;;;;;;;;;;;;;;22.64;49.27;97964.52;1665401;86;20579;-88
2022/05/31 13:07:25;;;;;;;;;;;;;;;22.51;49.12;97969.27;1667250;84;24996;-88
2022/05/31 13:09:55;;;;;;;;;;;;;;;22.38;49.01;97965.15;1660603;85;21998;-88
2022/05/31 13:20:57;;;;;;;;;;;;;;;22.66;49.15;97965.16;1666227;86;24977;-83
2022/05/31 13:23:23;;;;;;;;;;;;;;;22.91;49.56;97966.36;1664793;85;22728;-83